Time;durP1;ratioP1;P1;durP2;ratioP2;P2;SDS_P1;SDS_P2;PMS_P1;PMS_P2;Temp;Humidity;BMP_temperature;BMP_pressure;BME280_temperature;BME280_humidity;BME280_pressure;Samples;Min_cycle;Max_cycle;Signal;HPM_P1;HPM_P2
2022/07/01 00:00:42;;;;;;;12.50;2.50;;;;;;;48.86;11.91;100677.19;5116479;28;20032;-61
2022/07/01 00:03:09;;;;;;;13.85;2.60;;;;;;;49.99;10.95;100683.63;5097823;28;20405;-60
2022/07/01 00:05:36;;;;;;;19.05;2.60;;;;;;;50.27;10.46;100681.22;5096111;28;20025;-60
2022/07/01 00:08:03;;;;;;;13.27;2.15;;;;;;;49.68;11.50;100679.22;5100313;28;20015;-60
2022/07/01 00:10:30;;;;;;;7.35;2.33;;;;;;;48.40;12.18;100681.56;5116094;28;20058;-60
2022/07/01 00:12:56;;;;;;;12.82;2.25;;;;;;;48.56;12.50;100674.94;5116078;28;20102;-60
2022/07/01 00:15:23;;;;;;;12.13;2.58;;;;;;;48.07;12.78;100671.69;5116015;28;20039;-60
2022/07/01 00:17:50;;;;;;;18.02;2.30;;;;;;;47.34;13.00;100676.72;5116024;28;20359;-60
2022/07/01 00:20:17;;;;;;;30.58;3.20;;;;;;;48.48;12.17;100668.19;5116082;28;20023;-60
2022/07/01 00:22:43;;;;;;;10.65;2.38;;;;;;;47.77;12.72;100667.81;5115796;28;20428;-60
2022/07/01 00:25:10;;;;;;;16.98;2.78;;;;;;;47.62;12.98;100667.31;5115631;28;20039;-60
2022/07/01 00:27:41;;;;;;;9.32;1.90;;;;;;;46.35;14.04;100670.13;5115530;28;20496;-60
2022/07/01 00:30:09;;;;;;;13.43;2.33;;;;;;;45.06;15.50;100662.56;5114483;28;20493;-60
2022/07/01 00:32:36;;;;;;;13.63;2.35;;;;;;;45.67;15.15;100653.75;5101938;28;20428;-60
2022/07/01 00:35:03;;;;;;;19.13;2.75;;;;;;;46.79;14.02;100655.16;5094927;28;20047;-60
2022/07/01 00:37:30;;;;;;;12.20;2.10;;;;;;;46.36;14.48;100666.72;5095035;28;20115;-60
2022/07/01 00:39:57;;;;;;;12.75;2.50;;;;;;;46.25;14.67;100652.31;5114483;28;20547;-60
2022/07/01 00:42:23;;;;;;;13.93;2.25;;;;;;;46.65;13.68;100659.00;5115452;27;20465;-61
2022/07/01 00:44:50;;;;;;;13.23;2.40;;;;;;;46.61;13.89;100650.63;5105262;28;20030;-61
2022/07/01 00:47:17;;;;;;;27.02;2.88;;;;;;;47.17;13.37;100652.88;5093363;28;20390;-61
2022/07/01 00:49:44;;;;;;;16.38;2.63;;;;;;;46.66;14.48;100669.22;5094199;28;20028;-61
2022/07/01 00:52:11;;;;;;;11.95;2.60;;;;;;;44.79;15.71;100660.97;5094237;28;20024;-60
2022/07/01 00:54:39;;;;;;;11.45;2.38;;;;;;;45.17;15.54;100665.56;5094770;28;20028;-60
2022/07/01 00:57:11;;;;;;;15.65;2.47;;;;;;;45.00;15.60;100653.91;5094825;28;20505;-60
2022/07/01 00:59:39;;;;;;;12.05;2.15;;;;;;;45.71;15.28;100654.31;5094918;28;20039;-60
2022/07/01 01:02:07;;;;;;;11.90;2.47;;;;;;;46.26;14.23;100658.84;5094062;28;20048;-60
2022/07/01 01:04:35;;;;;;;8.93;2.15;;;;;;;45.48;15.49;100659.06;5094813;28;20081;-61
2022/07/01 01:07:02;;;;;;;13.35;2.30;;;;;;;46.29;14.46;100654.91;5094663;28;20020;-61
2022/07/01 01:09:30;;;;;;;13.05;2.38;;;;;;;44.99;15.72;100658.06;5109701;28;20040;-60
2022/07/01 01:11:57;;;;;;;9.32;2.08;;;;;;;43.91;16.86;100654.31;5115002;28;20030;-60
2022/07/01 01:14:25;;;;;;;10.70;2.75;;;;;;;43.37;17.07;100664.34;5101758;28;20075;-60
2022/07/01 01:16:52;;;;;;;14.05;2.80;;;;;;;43.28;17.36;100656.66;5094528;28;20020;-60
2022/07/01 01:19:19;;;;;;;8.18;2.10;;;;;;;42.83;17.81;100666.44;5094426;28;20035;-60
2022/07/01 01:21:47;;;;;;;9.80;2.15;;;;;;;42.39;18.46;100677.72;5094467;28;20027;-60
2022/07/01 01:24:13;;;;;;;8.77;2.13;;;;;;;41.80;18.97;100683.06;5094293;28;20059;-60
2022/07/01 01:26:40;;;;;;;10.05;2.53;;;;;;;42.45;18.78;100670.06;5094343;28;20459;-60
2022/07/01 01:29:07;;;;;;;11.70;2.70;;;;;;;42.79;17.87;100657.25;5094452;28;20036;-59
2022/07/01 01:31:35;;;;;;;12.55;2.65;;;;;;;43.04;18.41;100668.16;5093790;28;20031;-59
2022/07/01 01:34:02;;;;;;;10.35;2.40;;;;;;;42.86;18.33;100670.38;5094003;28;20052;-59
2022/07/01 01:36:29;;;;;;;10.27;3.13;;;;;;;42.58;20.51;100679.19;5094152;28;20036;-60
2022/07/01 01:38:59;;;;;;;14.43;3.22;;;;;;;41.86;22.85;100678.31;5103707;28;20074;-60
2022/07/01 01:41:26;;;;;;;15.55;3.33;;;;;;;41.48;22.88;100676.84;5114870;28;20118;-60
2022/07/01 01:43:53;;;;;;;9.85;3.13;;;;;;;41.50;22.89;100674.31;5114601;28;20140;-60
2022/07/01 01:46:20;;;;;;;13.52;3.60;;;;;;;41.38;23.10;100683.03;5114901;28;20031;-60
2022/07/01 01:48:47;;;;;;;19.02;3.63;;;;;;;40.99;24.04;100659.97;5113086;28;20119;-60
2022/07/01 01:51:14;;;;;;;20.95;3.53;;;;;;;41.16;24.37;100684.00;5093358;28;20020;-60
2022/07/01 01:53:40;;;;;;;13.48;3.60;;;;;;;40.61;25.39;100692.56;5093585;28;20035;-60
2022/07/01 01:56:07;;;;;;;13.50;3.42;;;;;;;40.47;25.32;100676.88;5090664;28;20065;-60
2022/07/01 01:58:34;;;;;;;16.05;3.67;;;;;;;40.67;25.26;100701.25;5093393;28;20110;-60
2022/07/01 02:01:01;;;;;;;16.70;3.20;;;;;;;40.37;25.90;100694.38;5093439;28;20061;-60
2022/07/01 02:03:28;;;;;;;11.95;3.30;;;;;;;40.29;25.77;100702.44;5090865;28;20040;-60
2022/07/01 02:05:55;;;;;;;11.57;3.40;;;;;;;40.38;25.21;100696.75;5093611;28;20050;-60
2022/07/01 02:08:22;;;;;;;10.90;3.30;;;;;;;40.21;25.82;100706.84;5096064;28;20028;-60
2022/07/01 02:10:49;;;;;;;14.35;3.30;;;;;;;40.02;25.80;100705.97;5114183;28;20092;-60
2022/07/01 02:13:16;;;;;;;13.65;3.30;;;;;;;40.08;25.90;100712.66;5113145;28;20048;-60
2022/07/01 02:15:43;;;;;;;16.33;3.25;;;;;;;40.04;25.57;100712.03;5086674;28;21181;-60
2022/07/01 02:18:09;;;;;;;10.25;3.05;;;;;;;39.79;26.06;100712.97;5092522;28;20024;-59
2022/07/01 02:20:36;;;;;;;11.00;2.75;;;;;;;39.69;26.12;100714.22;5091897;28;20051;-59
2022/07/01 02:23:04;;;;;;;12.73;3.20;;;;;;;39.66;25.90;100717.97;5082261;28;20075;-61
2022/07/01 02:25:31;;;;;;;11.90;3.10;;;;;;;39.50;26.20;100718.97;5078460;28;20056;-61
2022/07/01 02:27:58;;;;;;;16.75;3.35;;;;;;;39.46;26.65;100726.84;5078611;28;20033;-60
2022/07/01 02:30:26;;;;;;;9.20;3.20;;;;;;;39.46;26.10;100720.34;5082572;28;20028;-60
2022/07/01 02:32:53;;;;;;;13.00;3.15;;;;;;;39.34;26.48;100718.41;5084820;28;20073;-60
2022/07/01 02:35:20;;;;;;;11.85;3.20;;;;;;;39.31;26.36;100727.81;5095330;28;20483;-60
2022/07/01 02:37:47;;;;;;;19.30;3.10;;;;;;;39.17;26.92;100735.66;5082202;28;20486;-59
2022/07/01 02:40:14;;;;;;;7.90;2.95;;;;;;;39.11;26.77;100728.16;5088289;28;20156;-60
2022/07/01 02:42:41;;;;;;;17.75;3.20;;;;;;;39.02;26.85;100739.44;5080370;28;20081;-61
2022/07/01 02:45:08;;;;;;;17.70;3.47;;;;;;;38.94;26.99;100739.69;5080077;28;20077;-60
2022/07/01 02:47:37;;;;;;;11.18;3.30;;;;;;;38.88;27.08;100738.69;5083177;28;20039;-61
2022/07/01 02:50:06;;;;;;;11.20;3.10;;;;;;;38.81;27.21;100741.00;5081683;28;20564;-61
2022/07/01 02:52:37;;;;;;;15.23;3.33;;;;;;;38.71;27.05;100742.94;5081847;28;20215;-60
2022/07/01 02:55:05;;;;;;;11.35;2.95;;;;;;;38.60;26.92;100736.78;5082500;28;20036;-61
2022/07/01 02:57:32;;;;;;;12.13;3.45;;;;;;;38.51;27.34;100743.19;5089531;28;20037;-62
2022/07/01 03:00:00;;;;;;;18.33;3.15;;;;;;;38.40;26.51;100752.06;5079592;28;20039;-63
2022/07/01 03:02:28;;;;;;;13.35;3.20;;;;;;;38.33;26.04;100745.84;5086448;28;20459;-65
2022/07/01 03:04:55;;;;;;;9.82;3.03;;;;;;;38.26;27.21;100751.75;5094466;28;20501;-63
2022/07/01 03:07:21;;;;;;;14.80;3.50;;;;;;;38.38;27.08;100760.25;5089196;28;20486;-60
2022/07/01 03:09:48;;;;;;;10.95;2.97;;;;;;;38.37;24.38;100769.22;5092420;28;20532;-60
2022/07/01 03:12:34;;;;;;;13.55;3.25;;;;;;;38.51;21.86;100754.56;5096601;28;20334;-60
2022/07/01 03:15:15;;;;;;;16.02;3.13;;;;;;;38.35;24.64;100755.47;5096102;28;20028;-60
2022/07/01 03:17:45;;;;;;;20.42;3.13;;;;;;;38.18;25.75;100758.88;5094426;28;20063;-61
2022/07/01 03:20:14;;;;;;;16.13;3.05;;;;;;;37.98;27.90;100754.19;5098423;28;20396;-60
2022/07/01 03:22:42;;;;;;;12.98;3.28;;;;;;;37.89;28.16;100767.50;5098375;28;20459;-60
2022/07/01 03:25:09;;;;;;;12.10;2.72;;;;;;;37.74;28.09;100767.13;5098141;28;20050;-61
2022/07/01 03:27:36;;;;;;;15.18;3.30;;;;;;;37.72;27.57;100778.94;5098595;28;20024;-61
2022/07/01 03:30:05;;;;;;;10.98;3.00;;;;;;;37.91;20.53;100773.50;5098848;28;20028;-60
2022/07/01 03:32:33;;;;;;;12.30;4.88;;;;;;;37.92;19.89;100773.06;5097297;28;20458;-60
2022/07/01 03:35:35;;;;;;;20.63;3.22;;;;;;;38.07;17.29;100773.41;5098255;28;20066;-60
2022/07/01 03:37:47;;;;;;;9.20;2.75;;;;;;;37.90;16.47;100764.19;5097058;28;20028;-60
2022/07/01 03:40:14;;;;;;;12.50;2.92;;;;;;;37.88;16.30;100763.84;5099427;28;20111;-60
2022/07/01 03:42:41;;;;;;;11.10;2.60;;;;;;;37.88;15.99;100769.50;5098187;28;20385;-60
2022/07/01 03:45:08;;;;;;;8.38;2.22;;;;;;;37.87;15.70;100773.59;5098345;28;20031;-61
2022/07/01 03:47:35;;;;;;;11.02;2.33;;;;;;;37.86;15.77;100762.69;5095769;28;20104;-61
2022/07/01 03:50:01;;;;;;;10.32;2.95;;;;;;;37.85;16.05;100764.75;5099706;28;20039;-61
2022/07/01 03:52:29;;;;;;;16.35;2.60;;;;;;;37.83;16.01;100772.91;5096481;28;20028;-61
2022/07/01 03:54:56;;;;;;;11.52;2.40;;;;;;;37.71;15.99;100768.00;5095215;28;20099;-61
2022/07/01 03:57:23;;;;;;;24.65;15.68;;;;;;;37.59;16.41;100772.38;5098249;28;20032;-62
2022/07/01 03:59:50;;;;;;;25.60;18.60;;;;;;;37.59;16.21;100778.06;5097760;28;20504;-59
2022/07/01 04:02:18;;;;;;;33.88;26.92;;;;;;;37.43;16.43;100780.97;5096664;28;20118;-59
2022/07/01 04:04:44;;;;;;;17.38;11.43;;;;;;;37.42;16.39;100785.03;5107771;28;20028;-59
2022/07/01 04:07:11;;;;;;;15.15;3.15;;;;;;;37.49;16.31;100790.50;5106894;28;20035;-60
2022/07/01 04:09:38;;;;;;;20.25;4.53;;;;;;;37.34;16.40;100801.44;5111903;27;20056;-60
2022/07/01 04:12:08;;;;;;;9.05;2.70;;;;;;;37.12;16.70;100800.41;5114120;28;20028;-59
2022/07/01 04:14:35;;;;;;;9.75;3.88;;;;;;;36.94;16.83;100800.88;5101867;28;20088;-60
2022/07/01 04:17:03;;;;;;;7.97;2.70;;;;;;;36.75;17.14;100796.09;5094023;28;20024;-60
2022/07/01 04:19:30;;;;;;;12.40;2.40;;;;;;;36.75;17.56;100807.41;5095827;28;20375;-60
2022/07/01 04:24:42;;;;;;;9.65;2.60;;;;;;;36.46;17.77;100805.31;5108690;28;20032;-60
2022/07/01 04:27:09;;;;;;;15.05;4.82;;;;;;;36.25;17.56;100815.03;5096731;28;20051;-60
2022/07/01 04:29:36;;;;;;;7.32;2.78;;;;;;;36.27;18.00;100821.09;5108937;28;20032;-60
2022/07/01 04:32:03;;;;;;;8.85;2.42;;;;;;;36.16;17.54;100829.00;5098874;28;20020;-60
2022/07/01 04:34:30;;;;;;;22.95;14.95;;;;;;;36.08;17.34;100826.75;5091212;28;20447;-60
2022/07/01 04:36:57;;;;;;;16.40;9.30;;;;;;;36.16;17.73;100834.66;5097457;28;20035;-60
2022/07/01 04:39:24;;;;;;;17.67;10.65;;;;;;;36.13;17.58;100831.91;5108071;28;20099;-60
2022/07/01 04:42:00;;;;;;;11.10;3.50;;;;;;;36.26;16.91;100836.44;5098095;28;20115;-60
2022/07/01 04:44:37;;;;;;;10.02;5.47;;;;;;;36.28;16.94;100839.66;5084985;28;20031;-60
2022/07/01 04:47:05;;;;;;;11.73;4.32;;;;;;;36.59;16.17;100837.31;5105143;28;20032;-60
2022/07/01 04:49:31;;;;;;;9.55;1.92;;;;;;;36.61;16.05;100836.88;5108282;28;20070;-60
2022/07/01 04:51:59;;;;;;;8.75;1.80;;;;;;;36.80;15.56;100844.53;5095072;28;20036;-60
2022/07/01 04:54:27;;;;;;;9.20;1.63;;;;;;;36.82;16.18;100844.09;5099921;28;20065;-61
2022/07/01 04:56:54;;;;;;;9.23;2.25;;;;;;;36.78;15.66;100849.81;5086671;28;20028;-60
2022/07/01 04:59:22;;;;;;;13.75;2.67;;;;;;;36.60;15.73;100863.59;5100256;28;20113;-60
2022/07/01 05:01:49;;;;;;;11.10;2.30;;;;;;;36.68;15.84;100867.09;5098272;28;20036;-60
2022/07/01 05:04:19;;;;;;;9.45;2.08;;;;;;;36.67;15.97;100871.16;5111436;28;20024;-60
2022/07/01 05:06:47;;;;;;;17.90;5.55;;;;;;;36.41;15.92;100881.44;5098313;28;20032;-60
2022/07/01 05:09:14;;;;;;;15.07;4.95;;;;;;;36.09;16.82;100865.97;5106619;28;20516;-60
2022/07/01 05:11:41;;;;;;;8.27;4.05;;;;;;;36.01;16.56;100881.47;5096280;28;20079;-60
2022/07/01 05:14:09;;;;;;;7.03;2.17;;;;;;;35.85;17.46;100884.22;5100439;28;20019;-60
2022/07/01 05:16:36;;;;;;;5.20;1.98;;;;;;;35.60;17.01;100884.69;5098341;28;20074;-60
2022/07/01 05:22:02;;;;;;;7.30;1.75;;;;;;;35.37;17.62;100882.69;5091360;28;20105;-61
2022/07/01 05:24:31;;;;;;;7.13;1.90;;;;;;;35.18;18.25;100892.66;5086187;28;20036;-61
2022/07/01 05:27:00;;;;;;;8.57;1.85;;;;;;;35.31;17.99;100892.84;5087926;28;20478;-61
2022/07/01 05:29:28;;;;;;;8.75;1.88;;;;;;;35.23;18.12;100897.06;5094266;28;20033;-60
2022/07/01 05:31:55;;;;;;;4.50;1.58;;;;;;;34.97;18.46;100893.81;5102331;28;20023;-61
2022/07/01 05:34:21;;;;;;;9.05;2.03;;;;;;;34.84;18.79;100892.81;5098646;28;20190;-60
2022/07/01 05:36:48;;;;;;;13.65;2.30;;;;;;;34.81;18.68;100904.94;5101419;28;20044;-60
2022/07/01 05:39:15;;;;;;;7.18;2.13;;;;;;;34.87;18.85;100888.38;5091651;28;20028;-59
2022/07/01 05:41:42;;;;;;;7.70;2.25;;;;;;;34.93;18.41;100901.56;5098411;28;20019;-60
2022/07/01 05:44:09;;;;;;;6.95;2.00;;;;;;;34.82;18.53;100898.06;5095037;28;20035;-60
2022/07/01 05:46:36;;;;;;;7.82;1.80;;;;;;;34.73;18.04;100889.34;5095028;28;20115;-59
2022/07/01 05:49:03;;;;;;;12.07;3.13;;;;;;;34.64;18.09;100897.53;5091069;28;20031;-60
2022/07/01 05:51:30;;;;;;;26.73;21.60;;;;;;;34.43;18.00;100896.63;5095970;28;20069;-59
2022/07/01 05:53:57;;;;;;;16.30;7.50;;;;;;;34.49;17.84;100892.13;5098039;28;20067;-59
2022/07/01 05:56:25;;;;;;;7.25;2.65;;;;;;;34.57;17.44;100904.09;5103519;28;20016;-59
2022/07/01 05:58:53;;;;;;;10.98;4.30;;;;;;;34.47;17.62;100897.41;5100300;28;20550;-59
2022/07/01 06:01:20;;;;;;;19.35;17.40;;;;;;;34.56;17.74;100890.41;5110443;28;20115;-59
2022/07/01 06:03:47;;;;;;;8.85;4.72;;;;;;;34.64;17.31;100891.91;5093472;28;20062;-60
2022/07/01 06:06:13;;;;;;;11.07;2.50;;;;;;;34.63;17.22;100873.34;5088160;28;20054;-61
2022/07/01 06:08:40;;;;;;;7.32;1.95;;;;;;;34.81;16.98;100890.81;5089589;28;20035;-60
2022/07/01 06:11:08;;;;;;;12.88;2.05;;;;;;;34.79;16.70;100894.09;5091079;28;20032;-61
2022/07/01 06:13:35;;;;;;;6.75;1.88;;;;;;;35.06;16.45;100885.63;5093825;28;20514;-60
2022/07/01 06:16:01;;;;;;;10.52;2.28;;;;;;;34.93;16.81;100881.00;5088721;28;20466;-60
2022/07/01 06:18:28;;;;;;;8.27;2.00;;;;;;;34.98;16.68;100884.13;5091940;28;20390;-60
2022/07/01 06:20:55;;;;;;;9.38;1.63;;;;;;;34.91;16.96;100889.91;5090264;28;20498;-61
2022/07/01 06:23:22;;;;;;;9.38;2.05;;;;;;;34.83;16.72;100885.53;5089954;28;20066;-60
2022/07/01 06:25:48;;;;;;;70.97;6.07;;;;;;;34.65;17.07;100896.31;5092073;28;20016;-63
2022/07/01 06:28:15;;;;;;;10.30;3.30;;;;;;;34.48;17.01;100901.81;5087882;28;20040;-62
2022/07/01 06:30:43;;;;;;;17.33;2.95;;;;;;;34.20;17.50;100902.16;5091467;28;20069;-62
2022/07/01 06:33:11;;;;;;;9.45;3.30;;;;;;;33.97;18.24;100904.88;5091902;28;20036;-62
2022/07/01 06:35:38;;;;;;;18.85;3.70;;;;;;;33.76;18.33;100906.69;5099995;27;20058;-61
2022/07/01 06:38:05;;;;;;;36.22;6.38;;;;;;;33.59;18.91;100916.13;5092194;28;20085;-61
2022/07/01 06:40:32;;;;;;;9.15;3.72;;;;;;;33.41;18.48;100913.47;5091573;28;20474;-63
2022/07/01 06:42:59;;;;;;;15.25;3.72;;;;;;;33.30;19.07;100913.53;5090884;28;20036;-61
2022/07/01 06:45:26;;;;;;;19.23;3.33;;;;;;;33.22;18.79;100905.56;5090688;28;20115;-62
2022/07/01 06:47:53;;;;;;;10.93;2.50;;;;;;;33.10;18.92;100906.88;5089829;28;20050;-62
2022/07/01 06:50:20;;;;;;;12.52;3.50;;;;;;;33.03;18.93;100915.34;5090336;28;20440;-63
2022/07/01 06:52:47;;;;;;;10.48;3.88;;;;;;;32.90;19.04;100909.44;5090751;28;20042;-62
2022/07/01 06:55:14;;;;;;;11.63;3.67;;;;;;;32.88;18.75;100913.88;5090995;28;20031;-62
2022/07/01 06:57:41;;;;;;;10.60;2.58;;;;;;;32.81;18.86;100914.72;5090466;28;20024;-62
2022/07/01 07:00:12;;;;;;;10.20;3.03;;;;;;;32.75;19.13;100919.97;5089459;28;20032;-61
2022/07/01 07:02:39;;;;;;;10.98;2.38;;;;;;;32.92;19.11;100909.81;5088694;28;20040;-63
2022/07/01 07:05:06;;;;;;;4.90;2.17;;;;;;;32.85;19.42;100911.88;5090004;28;20032;-60
2022/07/01 07:07:34;;;;;;;11.52;3.13;;;;;;;32.66;19.32;100907.53;5089403;28;20374;-61
2022/07/01 07:10:00;;;;;;;12.00;2.90;;;;;;;32.58;20.18;100906.78;5090356;28;20016;-61
2022/07/01 07:12:27;;;;;;;9.98;4.07;;;;;;;32.42;21.36;100892.41;5089919;28;20520;-61
2022/07/01 07:14:54;;;;;;;14.55;3.75;;;;;;;32.45;25.15;100905.66;5090220;28;20067;-61
2022/07/01 07:17:21;;;;;;;19.33;4.18;;;;;;;32.57;27.33;100915.66;5086552;28;20024;-63
2022/07/01 07:19:48;;;;;;;23.45;4.85;;;;;;;32.34;28.38;100924.63;5091103;28;20630;-62
2022/07/01 07:22:15;;;;;;;20.25;5.53;;;;;;;32.17;30.59;100913.00;5091507;28;20482;-61
2022/07/01 07:24:42;;;;;;;18.77;6.15;;;;;;;32.04;32.46;100911.03;5092776;28;20107;-60
2022/07/01 07:27:09;;;;;;;17.40;6.95;;;;;;;32.08;33.78;100914.63;5092208;28;20034;-61
2022/07/01 07:29:35;;;;;;;23.52;5.55;;;;;;;32.01;35.38;100912.66;5093472;28;20084;-61
2022/07/01 07:32:02;;;;;;;24.23;5.05;;;;;;;32.09;35.89;100928.28;5091997;28;20036;-60
2022/07/01 07:34:29;;;;;;;21.83;5.55;;;;;;;31.94;36.17;100931.53;5089894;28;20047;-61
2022/07/01 07:36:56;;;;;;;20.67;5.22;;;;;;;31.76;35.88;100925.97;5087690;28;20032;-60
2022/07/01 07:39:23;;;;;;;17.13;5.20;;;;;;;31.67;36.12;100936.81;5094507;28;20031;-60
2022/07/01 07:41:50;;;;;;;33.00;5.40;;;;;;;31.56;36.35;100937.59;5094103;28;20055;-62
2022/07/01 07:44:16;;;;;;;23.08;5.13;;;;;;;31.51;36.70;100946.44;5100628;28;20031;-60
2022/07/01 07:46:43;;;;;;;25.42;5.15;;;;;;;31.43;37.33;100928.00;5099666;28;20020;-60
2022/07/01 07:49:10;;;;;;;34.20;5.35;;;;;;;31.52;37.59;100936.00;5108270;28;20103;-62
2022/07/01 07:51:37;;;;;;;40.88;5.60;;;;;;;31.48;37.36;100941.63;5093262;28;20062;-62
2022/07/01 07:54:04;;;;;;;17.38;4.72;;;;;;;31.44;37.16;100926.81;5098268;28;20039;-61
2022/07/01 07:56:32;;;;;;;18.55;4.63;;;;;;;31.42;37.27;100925.56;5096029;28;20114;-62
2022/07/01 07:58:58;;;;;;;15.80;4.88;;;;;;;31.35;37.55;100925.59;5110267;28;20084;-62
2022/07/01 08:01:26;;;;;;;13.73;4.53;;;;;;;31.28;38.07;100926.41;5099258;28;20453;-63
2022/07/01 08:03:53;;;;;;;12.88;3.92;;;;;;;31.21;38.44;100926.38;5109528;28;20112;-59
2022/07/01 08:06:20;;;;;;;18.35;4.18;;;;;;;31.20;38.89;100907.94;5095454;28;20064;-62
2022/07/01 08:08:46;;;;;;;18.48;4.25;;;;;;;31.13;38.97;100914.34;5108712;28;20030;-61
2022/07/01 08:11:14;;;;;;;14.68;4.50;;;;;;;31.03;39.23;100915.13;5115798;28;20393;-62
2022/07/01 08:13:40;;;;;;;14.75;4.57;;;;;;;30.96;39.31;100932.75;5096341;28;20015;-61
2022/07/01 08:16:08;;;;;;;14.27;4.40;;;;;;;30.86;39.64;100929.94;5108193;28;20084;-62
2022/07/01 08:18:35;;;;;;;34.22;5.40;;;;;;;30.79;40.11;100933.53;5106856;28;20020;-61
2022/07/01 08:21:03;;;;;;;24.88;5.00;;;;;;;30.79;40.25;100932.72;5100745;28;20040;-61
2022/07/01 08:23:30;;;;;;;20.58;4.72;;;;;;;30.69;40.09;100928.69;5112210;28;20027;-62
2022/07/01 08:25:57;;;;;;;35.17;5.53;;;;;;;30.69;40.00;100934.28;5100397;28;20032;-61
2022/07/01 08:28:24;;;;;;;12.98;4.80;;;;;;;30.60;40.50;100936.66;5106266;28;20024;-61
2022/07/01 08:30:51;;;;;;;13.85;5.15;;;;;;;30.54;40.57;100927.84;5108764;28;20063;-62
2022/07/01 08:33:17;;;;;;;17.95;5.50;;;;;;;30.41;40.83;100920.19;5098763;28;20024;-60
2022/07/01 08:35:44;;;;;;;18.38;5.18;;;;;;;30.51;43.27;100933.41;5111920;28;20122;-60
2022/07/01 08:38:11;;;;;;;15.73;4.63;;;;;;;30.53;44.31;100942.25;5089934;28;20086;-60
2022/07/01 08:40:38;;;;;;;19.17;5.43;;;;;;;30.53;44.35;100929.03;5106356;28;20030;-60
2022/07/01 08:43:07;;;;;;;23.55;5.03;;;;;;;30.41;44.20;100937.81;5098151;28;20020;-60
2022/07/01 08:45:35;;;;;;;14.90;4.70;;;;;;;30.68;44.03;100938.31;5111940;28;20044;-60
2022/07/01 08:48:03;;;;;;;22.15;4.80;;;;;;;30.67;45.85;100933.91;5100997;28;20084;-61
2022/07/01 08:50:40;;;;;;;13.52;4.50;;;;;;;30.76;46.16;100944.75;5104405;28;20481;-61
2022/07/01 08:53:10;;;;;;;12.52;4.38;;;;;;;30.63;47.36;100947.91;5110857;28;20127;-61
2022/07/01 08:58:25;;;;;;;17.75;4.85;;;;;;;30.30;47.64;100957.38;5092795;28;20413;-61
2022/07/01 09:00:53;;;;;;;25.60;5.15;;;;;;;30.23;47.93;100957.34;5108396;28;20501;-61
2022/07/01 09:03:23;;;;;;;23.00;4.45;;;;;;;30.25;46.71;100956.97;5097713;28;20040;-60
2022/07/01 09:05:51;;;;;;;29.73;5.07;;;;;;;30.21;47.23;100956.94;5110129;28;20024;-60
2022/07/01 09:08:19;;;;;;;12.38;4.85;;;;;;;30.13;47.78;100958.09;5102898;28;20049;-60
2022/07/01 09:10:46;;;;;;;16.17;4.47;;;;;;;30.05;49.89;100953.66;5101243;28;20030;-60
2022/07/01 09:13:14;;;;;;;16.00;4.55;;;;;;;29.97;49.96;100951.97;5093723;28;20031;-60
2022/07/01 09:15:41;;;;;;;12.18;4.15;;;;;;;29.93;50.56;100953.94;5090476;28;20055;-60
2022/07/01 09:18:14;;;;;;;12.80;4.22;;;;;;;29.98;49.26;100956.38;5096403;28;20024;-61
2022/07/01 09:20:43;;;;;;;15.23;4.40;;;;;;;29.88;50.19;100957.13;5096539;28;20597;-61
2022/07/01 09:23:19;;;;;;;14.90;3.80;;;;;;;29.77;50.19;100951.44;5093596;28;20048;-60
2022/07/01 09:25:49;;;;;;;13.18;4.20;;;;;;;29.71;50.51;100947.41;5105254;28;20054;-60
2022/07/01 09:28:18;;;;;;;22.08;5.72;;;;;;;29.65;51.00;100958.19;5093713;28;20070;-61
2022/07/01 09:30:47;;;;;;;17.77;5.00;;;;;;;29.58;50.57;100949.72;5096202;28;20031;-60
2022/07/01 09:33:21;;;;;;;18.00;5.35;;;;;;;29.56;50.56;100954.91;5104743;28;20494;-60
2022/07/01 09:35:49;;;;;;;12.45;5.30;;;;;;;29.57;50.39;100948.09;5107376;28;20055;-60
2022/07/01 09:38:19;;;;;;;15.82;4.78;;;;;;;29.56;48.45;100954.91;5095528;27;20036;-60
2022/07/01 09:40:50;;;;;;;13.93;4.35;;;;;;;29.56;49.07;100956.91;5104229;28;20030;-60
2022/07/01 09:43:24;;;;;;;11.85;4.20;;;;;;;29.57;48.24;100950.91;5113154;28;20035;-59
2022/07/01 09:45:52;;;;;;;11.40;3.85;;;;;;;29.55;48.58;100950.50;5113802;28;20508;-60
2022/07/01 09:48:19;;;;;;;15.35;4.07;;;;;;;29.46;49.41;100947.22;5114188;28;20032;-60
2022/07/01 09:50:46;;;;;;;12.68;3.70;;;;;;;29.60;48.17;100944.50;5114027;28;20402;-59
2022/07/01 09:53:13;;;;;;;10.25;3.53;;;;;;;29.61;47.70;100948.13;5106806;28;20433;-60
2022/07/01 09:55:40;;;;;;;12.98;3.70;;;;;;;29.56;47.26;100952.09;5093465;28;20028;-59
2022/07/01 09:58:07;;;;;;;9.07;3.75;;;;;;;29.56;47.14;100945.69;5092974;28;20165;-60
2022/07/01 10:00:36;;;;;;;10.75;3.63;;;;;;;29.48;46.85;100951.25;5093154;28;20417;-59
2022/07/01 10:03:06;;;;;;;9.20;3.90;;;;;;;29.41;47.56;100956.75;5093546;28;20081;-59
2022/07/01 10:05:42;;;;;;;10.60;3.88;;;;;;;29.32;47.99;100950.69;5093618;28;20036;-60
2022/07/01 10:08:31;;;;;;;15.10;4.18;;;;;;;29.39;47.75;100952.72;5093005;28;20024;-60
2022/07/01 10:11:34;;;;;;;14.48;3.95;;;;;;;29.48;47.56;100944.84;5104379;28;20494;-60
2022/07/01 10:14:06;;;;;;;11.15;3.97;;;;;;;29.34;47.68;100953.91;5107716;28;20042;-60
2022/07/01 10:16:36;;;;;;;12.02;4.43;;;;;;;29.25;47.52;100947.81;5113635;28;20036;-60
2022/07/01 10:19:35;;;;;;;16.80;4.88;;;;;;;29.14;47.15;100944.94;5113792;28;20128;-60
2022/07/01 10:22:26;;;;;;;17.58;4.68;;;;;;;29.13;48.04;100951.72;5079338;28;20184;-60
2022/07/01 10:24:53;;;;;;;11.55;4.28;;;;;;;29.03;47.73;100944.00;5092999;28;20032;-60
2022/07/01 10:27:24;;;;;;;14.20;4.63;;;;;;;28.99;49.30;100940.38;5093271;28;20111;-60
2022/07/01 10:30:14;;;;;;;12.10;4.30;;;;;;;28.87;48.54;100940.66;5093259;28;20036;-60
2022/07/01 10:32:48;;;;;;;18.63;4.70;;;;;;;29.01;48.47;100946.38;5092874;28;20032;-59
2022/07/01 10:35:15;;;;;;;11.88;4.47;;;;;;;28.97;48.42;100942.75;5092877;28;20039;-59
2022/07/01 10:38:01;;;;;;;18.40;4.63;;;;;;;28.99;47.78;100951.56;5093163;28;20111;-60
2022/07/01 10:40:50;;;;;;;12.13;4.32;;;;;;;29.02;47.66;100945.19;5098606;28;20454;-60
2022/07/01 10:43:32;;;;;;;15.02;4.70;;;;;;;29.08;48.06;100949.25;5113438;28;20032;-60
2022/07/01 10:46:00;;;;;;;12.52;4.93;;;;;;;28.89;48.69;100925.09;5113260;28;20473;-60
2022/07/01 10:48:31;;;;;;;18.08;5.55;;;;;;;28.89;49.20;100941.06;5113337;28;20031;-59
2022/07/01 10:50:59;;;;;;;19.20;5.40;;;;;;;28.85;49.29;100940.19;5113144;28;20074;-60
2022/07/01 10:53:50;;;;;;;15.48;5.90;;;;;;;28.79;49.36;100944.53;5104982;28;20020;-60
2022/07/01 10:56:18;;;;;;;14.90;6.78;;;;;;;28.73;50.07;100952.47;5092473;28;20456;-60
2022/07/01 10:58:44;;;;;;;19.17;8.05;;;;;;;28.67;49.64;100944.78;5092647;28;20043;-60
2022/07/01 11:01:11;;;;;;;18.15;7.70;;;;;;;28.70;48.74;100944.84;5092743;28;20074;-59
2022/07/01 11:03:40;;;;;;;16.67;8.07;;;;;;;28.75;49.23;100946.50;5091453;28;20028;-60
2022/07/01 11:06:07;;;;;;;15.13;6.60;;;;;;;28.83;49.48;100948.16;5091443;28;20438;-59
2022/07/01 11:08:33;;;;;;;17.20;6.25;;;;;;;28.79;49.43;100956.53;5092129;28;20032;-59
2022/07/01 11:11:05;;;;;;;15.07;5.28;;;;;;;28.82;48.93;100960.56;5102165;28;20092;-59
2022/07/01 11:13:32;;;;;;;17.13;5.55;;;;;;;28.74;49.23;100953.28;5112903;28;20047;-60
2022/07/01 11:16:00;;;;;;;11.95;4.57;;;;;;;28.62;48.75;100964.72;5112725;28;20492;-60
2022/07/01 11:18:28;;;;;;;11.70;4.10;;;;;;;28.61;48.47;100960.31;5112877;28;20067;-59
2022/07/01 11:21:07;;;;;;;11.93;4.35;;;;;;;28.59;48.84;100963.50;5112880;28;20020;-59
2022/07/01 11:23:34;;;;;;;12.85;3.88;;;;;;;28.78;47.82;100959.72;5102733;28;20486;-59
2022/07/01 11:26:01;;;;;;;13.32;3.47;;;;;;;28.75;47.68;100960.50;5092628;28;20063;-59
2022/07/01 11:28:27;;;;;;;12.98;4.03;;;;;;;28.78;47.98;100965.31;5092647;28;20039;-59
2022/07/01 11:31:01;;;;;;;11.88;3.40;;;;;;;28.81;47.73;100967.34;5092468;28;20032;-60
2022/07/01 11:33:28;;;;;;;9.82;3.65;;;;;;;28.81;47.26;100958.94;5096487;28;20442;-59